createdAt,value
2019-04-21T00:01:50.656Z,54.20
2019-04-21T00:04:33.065Z,54.50
2019-04-21T00:07:08.831Z,54.60
2019-04-21T00:09:40.070Z,55.30
2019-04-21T00:12:12.439Z,55.20
2019-04-21T00:14:30.247Z,55.80
2019-04-21T00:16:56.062Z,56.10
2019-04-21T00:19:28.212Z,56.60
2019-04-21T00:22:07.629Z,57.50
2019-04-21T00:24:39.867Z,58.30
2019-04-21T00:27:14.219Z,57.60
2019-04-21T00:29:50.205Z,57.80
2019-04-21T00:32:10.124Z,58.50
2019-04-21T00:34:25.752Z,59.60
2019-04-21T00:37:05.773Z,59.00
2019-04-21T00:42:14.014Z,60.40
2019-04-21T00:44:36.720Z,60.50
2019-04-21T00:47:08.432Z,60.20
2019-04-21T00:49:43.518Z,60.60
2019-04-21T00:52:47.580Z,60.50
2019-04-21T00:55:23.439Z,61.10
2019-04-21T00:57:45.308Z,61.80
2019-04-21T01:00:11.904Z,62.10
2019-04-21T01:05:18.525Z,64.30
2019-04-21T01:07:42.219Z,63.80
2019-04-21T01:10:05.255Z,63.90
2019-04-21T01:12:41.803Z,65.10
2019-04-21T01:15:18.356Z,64.00
2019-04-21T01:17:50.024Z,65.20
2019-04-21T01:20:07.911Z,64.40
2019-04-21T01:22:22.471Z,64.50
2019-04-21T01:25:00.033Z,65.20
2019-04-21T01:27:41.756Z,67.00
2019-04-21T01:30:14.348Z,66.30
2019-04-21T01:32:47.055Z,66.40
2019-04-21T01:35:09.880Z,68.20
2019-04-21T01:37:58.853Z,68.60
2019-04-21T01:40:16.955Z,68.00
2019-04-21T01:42:45.873Z,68.20
2019-04-21T01:45:09.904Z,69.20
2019-04-21T01:47:44.649Z,71.10
2019-04-21T01:50:02.558Z,72.30
2019-04-21T01:52:51.439Z,74.10
2019-04-21T01:55:32.335Z,74.60
2019-04-21T01:57:58.968Z,75.90
2019-04-21T02:00:36.814Z,77.40
2019-04-21T02:03:10.714Z,79.50
2019-04-21T02:05:37.734Z,79.40
2019-04-21T02:08:05.116Z,81.70
2019-04-21T02:10:40.379Z,82.80
2019-04-21T02:13:03.532Z,83.10
2019-04-21T02:15:56.095Z,85.10
2019-04-21T02:18:06.061Z,86.50
2019-04-21T02:20:26.937Z,86.50
2019-04-21T02:23:17.744Z,88.10
2019-04-21T02:25:40.989Z,89.10
2019-04-21T02:31:49.090Z,91.40
2019-04-21T02:34:19.225Z,90.50
2019-04-21T02:37:13.223Z,90.10
2019-04-21T02:39:23.187Z,88.20
2019-04-21T02:41:54.636Z,89.40
2019-04-21T02:44:28.323Z,90.90
2019-04-21T02:46:46.663Z,90.80
2019-04-21T02:49:35.005Z,91.40
2019-04-21T02:51:52.839Z,91.40
2019-04-21T02:56:59.087Z,91.00
2019-04-21T03:02:17.129Z,91.80
2019-04-21T03:04:36.223Z,93.00
2019-04-21T03:07:13.460Z,92.30
2019-04-21T03:09:39.153Z,93.70
2019-04-21T03:12:11.300Z,94.30
2019-04-21T03:14:56.000Z,95.50
2019-04-21T03:17:17.883Z,96.50
2019-04-21T03:25:04.653Z,95.60
2019-04-21T03:29:48.198Z,97.20
2019-04-21T03:37:23.465Z,99.60
2019-04-21T03:44:45.720Z,99.90
2019-04-21T03:49:54.311Z,99.90
2019-04-21T03:55:44.733Z,99.90
2019-04-21T04:00:36.617Z,99.90
2019-04-21T04:03:34.202Z,99.90
2019-04-21T04:08:47.790Z,99.90
2019-04-21T04:13:39.114Z,99.90
2019-04-21T04:16:05.836Z,99.90
2019-04-21T04:23:40.648Z,99.90
2019-04-21T04:26:07.407Z,99.90
2019-04-21T04:28:49.858Z,99.90
2019-04-21T04:31:05.406Z,99.90
2019-04-21T04:36:15.659Z,99.90
2019-04-21T04:38:39.638Z,99.90
2019-04-21T04:41:16.318Z,99.90
2019-04-21T04:43:49.871Z,99.90
2019-04-21T04:46:06.764Z,99.90
2019-04-21T04:48:45.600Z,99.90
2019-04-21T04:53:45.885Z,99.90
2019-04-21T04:56:10.866Z,99.90
2019-04-21T04:59:14.761Z,99.90
2019-04-21T05:01:34.940Z,99.90
2019-04-21T05:11:44.537Z,99.90
2019-04-21T05:13:55.023Z,99.90
2019-04-21T05:16:36.747Z,99.90
2019-04-21T05:21:30.610Z,99.90
2019-04-21T05:23:44.288Z,99.90
2019-04-21T05:26:10.884Z,99.30
2019-04-21T05:28:40.631Z,99.00
2019-04-21T05:31:19.791Z,99.20
2019-04-21T05:33:58.838Z,99.90
2019-04-21T05:36:30.882Z,99.70
2019-04-21T05:39:10.796Z,99.70
2019-04-21T05:41:37.236Z,99.60
2019-04-21T05:44:24.431Z,97.90
2019-04-21T05:46:53.415Z,97.70
2019-04-21T05:49:27.967Z,97.20
2019-04-21T05:52:00.237Z,96.80
2019-04-21T05:57:05.755Z,94.50
2019-04-21T05:59:32.658Z,94.60
2019-04-21T06:02:15.187Z,94.40
2019-04-21T06:05:02.160Z,94.80
2019-04-21T06:07:13.690Z,93.80
2019-04-21T06:09:48.985Z,92.80
2019-04-21T06:12:10.354Z,92.70
2019-04-21T06:14:44.963Z,92.00
2019-04-21T06:17:08.106Z,91.90
2019-04-21T06:19:45.062Z,91.10
2019-04-21T06:22:09.301Z,90.00
2019-04-21T06:24:54.670Z,88.50
2019-04-21T06:27:26.460Z,86.60
2019-04-21T06:29:43.704Z,84.60
2019-04-21T06:32:46.076Z,84.80
2019-04-21T06:35:04.434Z,82.50
2019-04-21T06:37:34.899Z,82.60
2019-04-21T06:40:01.650Z,79.10
2019-04-21T06:42:18.409Z,78.90
2019-04-21T06:44:53.711Z,77.00
2019-04-21T06:47:26.637Z,75.90
2019-04-21T06:49:42.808Z,75.70
2019-04-21T06:52:32.897Z,74.90
2019-04-21T06:54:49.514Z,72.90
2019-04-21T06:57:18.196Z,70.70
2019-04-21T06:59:45.974Z,71.00
2019-04-21T07:02:31.846Z,68.40
2019-04-21T07:04:50.254Z,67.30
2019-04-21T07:07:12.916Z,66.00
2019-04-21T07:10:03.729Z,65.70
2019-04-21T07:12:13.693Z,63.10
2019-04-21T07:14:41.866Z,61.90
2019-04-21T07:17:20.962Z,62.80
2019-04-21T07:19:48.403Z,60.50
2019-04-21T07:22:21.182Z,57.70
2019-04-21T07:25:02.994Z,55.50
2019-04-21T07:27:17.539Z,55.50
2019-04-21T07:29:50.515Z,53.90
2019-04-21T07:32:14.079Z,52.40
2019-04-21T07:34:49.817Z,52.10
2019-04-21T07:37:10.262Z,50.50
2019-04-21T07:39:45.153Z,48.70
2019-04-21T07:42:13.751Z,46.70
2019-04-21T07:44:44.770Z,42.70
2019-04-21T07:47:15.777Z,41.50
2019-04-21T07:49:59.067Z,38.60
2019-04-21T07:52:28.590Z,37.70
2019-04-21T07:55:06.290Z,34.90
2019-04-21T07:57:18.757Z,34.30
2019-04-21T08:00:16.200Z,33.10
2019-04-21T08:02:22.166Z,32.90
2019-04-21T08:05:02.852Z,30.00
2019-04-21T08:07:30.629Z,32.60
2019-04-21T08:09:51.100Z,32.00
2019-04-21T08:12:21.588Z,31.50
2019-04-21T08:14:57.547Z,30.20
2019-04-21T08:17:23.427Z,29.10
2019-04-21T08:19:53.911Z,27.60
2019-04-21T08:22:28.185Z,27.60
2019-04-21T08:24:59.437Z,28.90
2019-04-21T08:27:37.611Z,28.80
2019-04-21T08:30:01.659Z,28.10
2019-04-21T08:32:36.384Z,27.50
2019-04-21T08:35:20.871Z,26.90
2019-04-21T08:37:24.847Z,27.10
2019-04-21T08:40:02.073Z,27.10
2019-04-21T08:42:35.090Z,26.50
2019-04-21T08:45:03.362Z,26.10
2019-04-21T08:47:36.470Z,24.50
2019-04-21T08:50:00.678Z,24.50
2019-04-21T08:52:36.215Z,25.20
2019-04-21T08:55:07.087Z,25.00
2019-04-21T08:57:48.847Z,24.90
2019-04-21T09:00:22.919Z,26.10
2019-04-21T09:02:47.601Z,24.80
2019-04-21T09:05:17.586Z,25.00
2019-04-21T09:07:50.936Z,23.60
2019-04-21T09:10:22.085Z,25.10
2019-04-21T09:12:47.485Z,24.00
2019-04-21T09:15:22.362Z,23.90
2019-04-21T09:17:44.730Z,24.60
2019-04-21T09:20:50.578Z,24.30
2019-04-21T09:22:47.807Z,24.10
2019-04-21T09:25:29.502Z,23.60
2019-04-21T09:27:51.837Z,23.50
2019-04-21T09:30:06.475Z,23.30
2019-04-21T09:32:36.673Z,23.00
2019-04-21T09:35:10.550Z,24.90
2019-04-21T09:37:44.380Z,24.20
2019-04-21T09:40:08.847Z,24.60
2019-04-21T09:42:44.354Z,23.40
2019-04-21T09:45:10.012Z,23.30
2019-04-21T09:47:45.980Z,23.60
2019-04-21T09:50:09.812Z,24.20
2019-04-21T09:52:45.157Z,23.40
2019-04-21T09:55:16.003Z,24.30
2019-04-21T09:57:47.094Z,24.80
2019-04-21T10:00:15.169Z,23.40
2019-04-21T10:02:51.518Z,23.60
2019-04-21T10:05:12.380Z,23.80
2019-04-21T10:07:42.919Z,22.70
2019-04-21T10:10:12.892Z,23.00
2019-04-21T10:12:41.394Z,24.00
2019-04-21T10:15:10.665Z,23.30
2019-04-21T10:17:41.814Z,23.30
2019-04-21T10:20:11.848Z,23.00
2019-04-21T10:22:41.353Z,21.70
2019-04-21T10:25:12.544Z,21.60
2019-04-21T10:27:41.318Z,20.50
2019-04-21T10:30:11.969Z,20.40
2019-04-21T10:32:40.793Z,20.50
2019-04-21T10:35:10.904Z,20.90
2019-04-21T10:37:50.803Z,21.60
2019-04-21T10:40:11.627Z,20.20
2019-04-21T10:42:40.580Z,21.60
2019-04-21T10:45:10.714Z,21.10
2019-04-21T10:47:40.938Z,19.80
2019-04-21T10:50:10.939Z,19.60
2019-04-21T10:52:59.161Z,20.60
2019-04-21T10:55:44.798Z,20.90
2019-04-21T10:58:16.684Z,19.70
2019-04-21T11:00:51.092Z,19.00
2019-04-21T11:03:31.046Z,20.00
2019-04-21T11:06:10.657Z,19.90
2019-04-21T11:08:44.980Z,19.20
2019-04-21T11:11:10.020Z,20.00
2019-04-21T11:13:38.886Z,20.30
2019-04-21T11:16:08.751Z,20.50
2019-04-21T11:18:37.786Z,21.30
2019-04-21T11:21:07.015Z,19.90
2019-04-21T11:23:35.602Z,19.80
2019-04-21T11:26:04.416Z,20.60
2019-04-21T11:28:33.062Z,20.40
2019-04-21T11:31:02.665Z,21.00
2019-04-21T11:33:31.343Z,20.90
2019-04-21T11:35:59.750Z,20.00
2019-04-21T11:38:58.432Z,20.40
2019-04-21T11:41:12.034Z,21.00
2019-04-21T11:43:41.328Z,21.10
2019-04-21T11:46:10.813Z,20.60
2019-04-21T11:48:39.978Z,21.40
2019-04-21T11:51:09.040Z,20.80
2019-04-21T11:53:39.040Z,21.80
2019-04-21T11:56:08.919Z,21.10
2019-04-21T11:58:37.519Z,21.20
2019-04-21T12:01:07.629Z,20.80
2019-04-21T12:03:37.641Z,20.80
2019-04-21T12:06:06.239Z,21.90
2019-04-21T12:08:40.385Z,21.60
2019-04-21T12:11:05.373Z,21.80
2019-04-21T12:13:34.184Z,22.10
2019-04-21T12:16:03.218Z,22.00
2019-04-21T12:18:32.474Z,22.50
2019-04-21T12:21:03.144Z,21.30
2019-04-21T12:23:32.441Z,21.90
2019-04-21T12:26:01.297Z,22.70
2019-04-21T12:28:30.251Z,23.40
2019-04-21T12:31:00.114Z,23.80
2019-04-21T12:33:34.142Z,23.80
2019-04-21T12:36:03.890Z,23.60
2019-04-21T12:38:42.739Z,24.30
2019-04-21T12:41:02.644Z,24.00
2019-04-21T12:43:31.066Z,24.00
2019-04-21T12:46:00.089Z,24.80
2019-04-21T12:48:29.678Z,24.80
2019-04-21T12:50:59.678Z,25.20
2019-04-21T12:53:29.608Z,25.50
2019-04-21T12:55:58.223Z,24.80
2019-04-21T12:58:26.666Z,25.00
2019-04-21T13:00:55.133Z,25.20
2019-04-21T13:03:25.229Z,25.70
2019-04-21T13:05:53.820Z,24.80
2019-04-21T13:08:22.541Z,24.90
2019-04-21T13:10:51.996Z,24.80
2019-04-21T13:13:21.872Z,24.60
2019-04-21T13:15:51.667Z,24.70
2019-04-21T13:18:20.615Z,24.80
2019-04-21T13:20:49.147Z,24.60
2019-04-21T13:23:18.946Z,25.00
2019-04-21T13:25:47.905Z,25.30
2019-04-21T13:28:16.642Z,26.00
2019-04-21T13:30:46.361Z,25.20
2019-04-21T13:33:15.425Z,25.40
2019-04-21T13:35:44.781Z,24.80
2019-04-21T13:38:25.105Z,25.90
2019-04-21T13:41:01.100Z,26.00
2019-04-21T13:43:19.000Z,26.20
2019-04-21T13:45:47.835Z,26.60
2019-04-21T13:48:16.825Z,26.80
2019-04-21T13:50:46.894Z,26.90
2019-04-21T13:53:16.690Z,26.60
2019-04-21T13:55:46.583Z,27.10
2019-04-21T13:58:16.673Z,26.90
2019-04-21T14:00:45.606Z,27.30
2019-04-21T14:03:14.541Z,27.10
2019-04-21T14:05:44.411Z,27.90
2019-04-21T14:08:15.441Z,27.30
2019-04-21T14:10:44.137Z,28.30
2019-04-21T14:13:14.218Z,27.60
2019-04-21T14:15:45.249Z,26.90
2019-04-21T14:18:13.048Z,27.30
2019-04-21T14:20:42.939Z,25.10
2019-04-21T14:23:21.340Z,27.00
2019-04-21T14:25:41.733Z,27.30
2019-04-21T14:28:10.323Z,26.70
2019-04-21T14:30:38.773Z,26.10
2019-04-21T14:33:07.943Z,27.00
2019-04-21T14:35:36.734Z,26.70
2019-04-21T14:38:06.638Z,27.50
2019-04-21T14:40:37.046Z,28.00
2019-04-21T14:43:05.943Z,27.60
2019-04-21T14:45:45.219Z,27.70
2019-04-21T14:48:32.808Z,27.40
2019-04-21T14:51:06.572Z,28.00
2019-04-21T14:53:56.177Z,27.10
2019-04-21T14:56:25.136Z,27.30
2019-04-21T14:58:56.841Z,26.50
2019-04-21T15:01:24.002Z,27.30
2019-04-21T15:03:52.473Z,28.30
2019-04-21T15:06:21.260Z,28.20
2019-04-21T15:08:51.100Z,28.20
2019-04-21T15:11:20.042Z,29.10
2019-04-21T15:13:49.813Z,28.00
2019-04-21T15:16:18.972Z,28.80
2019-04-21T15:18:48.568Z,28.50
2019-04-21T15:21:17.497Z,29.20
2019-04-21T15:23:46.579Z,29.70
2019-04-21T15:26:15.154Z,29.50
2019-04-21T15:28:44.531Z,29.80
2019-04-21T15:31:21.807Z,29.40
2019-04-21T15:33:43.281Z,29.60
2019-04-21T15:36:13.196Z,29.70
2019-04-21T15:38:41.837Z,29.70
2019-04-21T15:41:10.861Z,29.70
2019-04-21T15:43:40.547Z,30.10
2019-04-21T15:46:09.184Z,29.90
2019-04-21T15:48:38.901Z,29.90
2019-04-21T15:51:09.290Z,29.80
2019-04-21T15:53:39.635Z,29.80
2019-04-21T15:56:12.987Z,30.70
2019-04-21T15:58:55.050Z,29.90
2019-04-21T16:01:25.099Z,30.00
2019-04-21T16:03:56.695Z,29.90
2019-04-21T16:06:23.931Z,29.90
2019-04-21T16:08:54.172Z,30.00
2019-04-21T16:11:23.934Z,30.30
2019-04-21T16:13:52.536Z,31.00
2019-04-21T16:16:23.606Z,31.00
2019-04-21T16:18:52.179Z,30.70
2019-04-21T16:21:22.060Z,31.20
2019-04-21T16:23:50.788Z,31.00
2019-04-21T16:26:20.318Z,32.00
2019-04-21T16:28:49.144Z,31.20
2019-04-21T16:31:18.490Z,30.10
2019-04-21T16:33:47.219Z,30.50
2019-04-21T16:36:17.088Z,30.70
2019-04-21T16:38:47.164Z,31.30
2019-04-21T16:41:16.170Z,31.20
2019-04-21T16:43:45.018Z,31.00
2019-04-21T16:46:13.736Z,31.00
2019-04-21T16:48:42.243Z,31.60
2019-04-21T16:51:10.712Z,31.90
2019-04-21T16:53:43.986Z,32.00
2019-04-21T16:56:33.007Z,32.60
2019-04-21T16:59:06.390Z,32.10
2019-04-21T17:01:36.439Z,33.30
2019-04-21T17:04:06.515Z,32.50
2019-04-21T17:06:35.364Z,33.20
2019-04-21T17:09:05.719Z,33.70
2019-04-21T17:11:37.198Z,33.20
2019-04-21T17:14:05.685Z,33.30
2019-04-21T17:16:57.675Z,33.20
2019-04-21T17:19:13.685Z,33.60
2019-04-21T17:21:34.839Z,33.70
2019-04-21T17:24:04.437Z,34.10
2019-04-21T17:26:36.260Z,33.90
2019-04-21T17:29:04.722Z,34.40
2019-04-21T17:31:34.031Z,34.90
2019-04-21T17:34:11.624Z,35.10
2019-04-21T17:36:33.078Z,34.50
2019-04-21T17:39:02.255Z,35.20
2019-04-21T17:41:41.202Z,35.70
2019-04-21T17:44:02.437Z,35.80
2019-04-21T17:46:40.814Z,36.10
2019-04-21T17:49:01.525Z,36.10
2019-04-21T17:51:39.456Z,35.40
2019-04-21T17:54:24.756Z,35.70
2019-04-21T17:57:12.491Z,35.80
2019-04-21T17:59:44.693Z,36.00
2019-04-21T18:02:03.644Z,36.70
2019-04-21T18:04:37.813Z,36.90
2019-04-21T18:07:26.245Z,35.80
2019-04-21T18:10:00.893Z,35.70
2019-04-21T18:12:24.988Z,35.20
2019-04-21T18:14:51.532Z,35.70
2019-04-21T18:17:10.906Z,34.70
2019-04-21T18:19:41.777Z,34.50
2019-04-21T18:24:55.660Z,34.60
2019-04-21T18:27:17.576Z,34.20
2019-04-21T18:29:46.452Z,34.50
2019-04-21T18:32:17.569Z,35.00
2019-04-21T18:35:00.422Z,35.20
2019-04-21T18:37:41.836Z,34.60
2019-04-21T18:40:12.345Z,34.10
2019-04-21T18:42:52.987Z,34.30
2019-04-21T18:48:03.864Z,34.70
2019-04-21T18:50:45.270Z,34.30
2019-04-21T18:53:17.970Z,35.70
2019-04-21T18:55:43.419Z,35.30
2019-04-21T18:58:11.619Z,35.30
2019-04-21T19:00:40.499Z,36.30
2019-04-21T19:03:10.452Z,36.60
2019-04-21T19:05:45.736Z,36.70
2019-04-21T19:08:25.869Z,37.40
2019-04-21T19:11:01.244Z,36.20
2019-04-21T19:13:41.933Z,36.50
2019-04-21T19:16:23.914Z,36.90
2019-04-21T19:20:54.219Z,36.80
2019-04-21T19:23:43.077Z,37.10
2019-04-21T19:26:10.397Z,37.10
2019-04-21T19:28:36.478Z,36.70
2019-04-21T19:31:07.694Z,36.80
2019-04-21T19:33:27.460Z,37.00
2019-04-21T19:35:41.496Z,37.10
2019-04-21T19:38:13.708Z,37.20
2019-04-21T19:40:50.887Z,37.40
2019-04-21T19:43:31.631Z,37.40
2019-04-21T19:45:56.322Z,37.90
2019-04-21T19:48:27.448Z,38.10
2019-04-21T19:51:04.180Z,38.20
2019-04-21T19:53:25.435Z,38.50
2019-04-21T19:55:42.439Z,38.40
2019-04-21T19:58:11.014Z,38.80
2019-04-21T20:00:40.243Z,38.90
2019-04-21T20:03:08.798Z,39.30
2019-04-21T20:05:46.783Z,40.10
2019-04-21T20:08:23.636Z,40.00
2019-04-21T20:10:55.004Z,41.40
2019-04-21T20:13:40.926Z,41.20
2019-04-21T20:15:57.012Z,40.90
2019-04-21T20:18:22.266Z,42.80
2019-04-21T20:20:39.646Z,42.80
2019-04-21T20:23:13.192Z,42.80
2019-04-21T20:25:45.941Z,43.20
2019-04-21T20:28:21.392Z,42.40
2019-04-21T20:30:59.562Z,42.30
2019-04-21T20:33:50.589Z,43.10
2019-04-21T20:36:15.826Z,43.10
2019-04-21T20:38:20.605Z,42.70
2019-04-21T20:40:52.702Z,43.40
2019-04-21T20:43:30.982Z,43.90
2019-04-21T20:48:21.146Z,45.40
2019-04-21T20:51:03.555Z,46.10
2019-04-21T20:53:26.185Z,45.60
2019-04-21T20:55:52.812Z,45.10
2019-04-21T20:58:28.124Z,43.90
2019-04-21T21:03:33.435Z,45.80
2019-04-21T21:05:53.204Z,45.50
2019-04-21T21:08:31.178Z,46.20
2019-04-21T21:10:55.205Z,45.70
2019-04-21T21:13:32.286Z,45.50
2019-04-21T21:18:56.219Z,45.40
2019-04-21T21:21:11.084Z,46.60
2019-04-21T21:23:42.453Z,47.50
2019-04-21T21:26:18.386Z,47.00
2019-04-21T21:28:38.011Z,48.60
2019-04-21T21:31:13.433Z,48.50
2019-04-21T21:33:52.884Z,48.90
2019-04-21T21:36:13.946Z,48.70
2019-04-21T21:41:11.932Z,48.80
2019-04-21T21:43:31.321Z,48.40
2019-04-21T21:46:04.813Z,47.90
2019-04-21T21:48:45.076Z,48.70
2019-04-21T21:51:08.203Z,49.10
2019-04-21T21:53:34.112Z,49.70
2019-04-21T21:56:02.637Z,49.90
2019-04-21T21:58:36.595Z,49.80
2019-04-21T22:01:04.895Z,50.00
2019-04-21T22:03:37.140Z,52.10
2019-04-21T22:06:09.448Z,51.10
2019-04-21T22:08:32.365Z,52.10
2019-04-21T22:11:01.345Z,51.60
2019-04-21T22:13:37.643Z,52.20
2019-04-21T22:16:06.762Z,52.00
2019-04-21T22:18:45.158Z,51.90
2019-04-21T22:21:12.810Z,52.60
2019-04-21T22:23:42.763Z,52.40
2019-04-21T22:26:01.152Z,51.90
2019-04-21T22:28:29.740Z,52.30
2019-04-21T22:30:58.706Z,52.20
2019-04-21T22:33:31.211Z,53.10
2019-04-21T22:36:05.421Z,53.60
2019-04-21T22:38:42.544Z,53.60
2019-04-21T22:41:09.716Z,54.10
2019-04-21T22:43:34.634Z,54.20
2019-04-21T22:45:59.120Z,54.50
2019-04-21T22:48:28.997Z,54.60
2019-04-21T22:50:58.295Z,55.20
2019-04-21T22:53:29.321Z,55.60
2019-04-21T22:56:06.925Z,55.40
2019-04-21T22:58:31.972Z,55.00
2019-04-21T23:01:00.516Z,55.20
2019-04-21T23:03:28.896Z,55.60
2019-04-21T23:06:00.541Z,55.60
2019-04-21T23:08:34.416Z,55.20
2019-04-21T23:11:03.510Z,55.90
2019-04-21T23:13:29.309Z,55.40
2019-04-21T23:16:00.903Z,55.70
2019-04-21T23:18:42.358Z,55.70
2019-04-21T23:21:15.021Z,55.60
2019-04-21T23:23:51.638Z,56.30
2019-04-21T23:26:18.664Z,56.70
2019-04-21T23:28:52.699Z,57.40
2019-04-21T23:31:21.841Z,57.50
2019-04-21T23:33:31.447Z,58.10
2019-04-21T23:36:09.674Z,58.30
2019-04-21T23:38:38.751Z,58.70
2019-04-21T23:41:04.214Z,58.70
2019-04-21T23:43:33.085Z,59.00
2019-04-21T23:46:08.901Z,59.10
2019-04-21T23:48:42.444Z,59.30
2019-04-21T23:51:14.370Z,58.50
2019-04-21T23:53:33.275Z,58.80
2019-04-21T23:56:03.341Z,59.10
2019-04-21T23:58:34.507Z,59.20
